Time,TemperatureF,DewpointF,PressureIn,WindDirection,WindDirectionDegrees,WindSpeedMPH,WindSpeedGustMPH,Humidity,HourlyPrecipIn,Conditions,Clouds,dailyrainin,SoftwareType,DateUTC
2013-07-31 00:01:00,77.6,73.8,30.15,SE,129,2.3,2.3,88,0.00,CLR,OVC,0.00,WeatherDisplay:10.37,2013-07-31 04:01:00,
2013-07-31 00:06:00,77.2,73.4,30.15,SSE,147,1.1,1.1,88,0.00,FEW,OVC,0.00,WeatherDisplay:10.37,2013-07-31 04:06:00,
2013-07-31 00:11:00,77.0,73.5,30.15,SSE,147,0.0,0.0,89,0.00,FEW,OVC,0.00,WeatherDisplay:10.37,2013-07-31 04:11:00,
2013-07-31 00:16:00,77.0,73.5,30.15,SSE,147,0.0,0.0,89,0.00,BKN,OVC,0.00,WeatherDisplay:10.37,2013-07-31 04:16:00,
2013-07-31 00:21:00,77.1,73.6,30.15,SSE,161,0.0,0.0,89,0.00,BKN,OVC,0.00,WeatherDisplay:10.37,2013-07-31 04:21:00,
2013-07-31 00:26:00,77.1,73.6,30.15,SSE,161,0.0,0.0,89,0.00,BKN,OVC,0.00,WeatherDisplay:10.37,2013-07-31 04:26:00,
2013-07-31 00:31:00,77.0,73.5,30.15,SSE,162,0.0,0.0,89,0.00,BKN,OVC,0.00,WeatherDisplay:10.37,2013-07-31 04:31:00,
2013-07-31 00:36:00,76.8,73.3,30.15,SSE,162,0.0,0.0,89,0.00,BKN,OVC,0.00,WeatherDisplay:10.37,2013-07-31 04:36:00,
2013-07-31 00:41:00,76.7,73.2,30.15,SSE,162,1.1,1.1,89,0.00,BKN,OVC,0.00,WeatherDisplay:10.37,2013-07-31 04:41:00,
2013-07-31 00:46:00,76.7,73.2,30.14,SSE,161,0.0,0.0,89,0.00,BKN,OVC,0.00,WeatherDisplay:10.37,2013-07-31 04:46:00,
2013-07-31 00:51:00,76.7,73.2,30.14,SSE,161,2.3,2.3,89,0.00,BKN,OVC,0.00,WeatherDisplay:10.37,2013-07-31 04:51:00,
2013-07-31 00:56:00,76.8,73.3,30.14,SSE,159,1.1,0.0,89,0.00,BKN,OVC,0.00,WeatherDisplay:10.37,2013-07-31 04:56:00,
2013-07-31 01:01:00,76.7,73.2,30.14,SSE,159,0.0,0.0,89,0.00,CLR,OVC,0.00,WeatherDisplay:10.37,2013-07-31 05:01:00,
2013-07-31 01:06:00,76.6,73.1,30.14,SSE,159,0.0,0.0,89,0.00,CLR,OVC,0.00,WeatherDisplay:10.37,2013-07-31 05:06:00,
2013-07-31 01:11:00,76.5,73.0,30.14,SSE,159,0.0,0.0,89,0.00,CLR,OVC,0.00,WeatherDisplay:10.37,2013-07-31 05:11:00,
2013-07-31 01:16:00,76.4,72.9,30.14,SSE,159,0.0,0.0,89,0.00,CLR,OVC,0.00,WeatherDisplay:10.37,2013-07-31 05:16:00,
2013-07-31 01:21:00,76.2,72.7,30.14,SSE,159,0.0,0.0,89,0.00,CLR,OVC,0.00,WeatherDisplay:10.37,2013-07-31 05:21:00,
2013-07-31 01:26:00,76.1,72.6,30.13,SSE,159,0.0,0.0,89,0.00,CLR,OVC,0.00,WeatherDisplay:10.37,2013-07-31 05:26:00,
2013-07-31 01:31:00,76.0,72.5,30.14,SSE,159,0.0,0.0,89,0.00,CLR,OVC,0.00,WeatherDisplay:10.37,2013-07-31 05:31:00,
2013-07-31 01:36:00,75.8,72.3,30.13,SSE,159,0.0,0.0,89,0.00,CLR,OVC,0.00,WeatherDisplay:10.37,2013-07-31 05:36:00,
2013-07-31 01:41:00,75.8,72.7,30.13,SSE,159,0.0,0.0,90,0.00,CLR,OVC,0.00,WeatherDisplay:10.37,2013-07-31 05:41:00,
2013-07-31 01:46:00,75.8,72.7,30.13,SSE,159,0.0,0.0,90,0.00,CLR,OVC,0.00,WeatherDisplay:10.37,2013-07-31 05:46:00,
2013-07-31 01:51:00,75.8,72.7,30.12,SSE,159,0.0,0.0,90,0.00,CLR,OVC,0.00,WeatherDisplay:10.37,2013-07-31 05:51:00,
2013-07-31 01:56:00,75.7,72.6,30.12,SSE,159,0.0,0.0,90,0.00,CLR,OVC,0.00,WeatherDisplay:10.37,2013-07-31 05:56:00,
2013-07-31 02:01:00,75.6,72.5,30.12,SSE,159,0.0,0.0,90,0.00,CLR,OVC,0.00,WeatherDisplay:10.37,2013-07-31 06:01:00,
2013-07-31 02:06:00,75.5,72.4,30.12,SSE,159,0.0,0.0,90,0.00,CLR,OVC,0.00,WeatherDisplay:10.37,2013-07-31 06:06:00,
2013-07-31 02:11:00,75.6,72.5,30.11,SSE,159,0.0,0.0,90,0.00,CLR,OVC,0.00,WeatherDisplay:10.37,2013-07-31 06:11:00,
2013-07-31 02:16:00,75.5,72.4,30.11,SSE,159,0.0,0.0,90,0.00,CLR,OVC,0.00,WeatherDisplay:10.37,2013-07-31 06:16:00,
2013-07-31 02:21:00,75.4,72.3,30.11,SSE,159,0.0,0.0,90,0.00,CLR,OVC,0.00,WeatherDisplay:10.37,2013-07-31 06:21:00,
2013-07-31 02:26:00,75.2,72.1,30.10,SSE,159,0.0,0.0,90,0.00,CLR,OVC,0.00,WeatherDisplay:10.37,2013-07-31 06:26:00,
2013-07-31 02:31:00,75.1,72.0,30.10,SSE,159,0.0,0.0,90,0.00,CLR,OVC,0.00,WeatherDisplay:10.37,2013-07-31 06:31:00,
2013-07-31 02:36:00,74.9,71.8,30.10,SSE,159,0.0,0.0,90,0.00,CLR,OVC,0.00,WeatherDisplay:10.37,2013-07-31 06:36:00,
2013-07-31 02:41:00,74.9,71.8,30.10,SSE,159,0.0,0.0,90,0.00,CLR,OVC,0.00,WeatherDisplay:10.37,2013-07-31 06:41:00,
2013-07-31 02:46:00,75.0,71.9,30.09,SSE,159,0.0,0.0,90,0.00,CLR,OVC,0.00,WeatherDisplay:10.37,2013-07-31 06:46:00,
2013-07-31 02:51:00,75.1,72.3,30.09,SSE,159,0.0,0.0,91,0.00,CLR,OVC,0.00,WeatherDisplay:10.37,2013-07-31 06:51:00,
2013-07-31 02:56:00,75.0,72.2,30.10,SSE,159,0.0,0.0,91,0.00,CLR,OVC,0.00,WeatherDisplay:10.37,2013-07-31 06:56:00,
2013-07-31 03:01:00,74.9,72.1,30.10,SSE,159,0.0,0.0,91,0.00,CLR,OVC,0.00,WeatherDisplay:10.37,2013-07-31 07:01:00,
2013-07-31 03:06:00,74.9,72.1,30.09,SSE,159,0.0,0.0,91,0.00,CLR,OVC,0.00,WeatherDisplay:10.37,2013-07-31 07:06:00,
2013-07-31 03:11:00,74.9,72.1,30.09,SSE,159,0.0,0.0,91,0.00,CLR,OVC,0.00,WeatherDisplay:10.37,2013-07-31 07:11:00,
2013-07-31 03:16:00,74.8,72.0,30.09,SSE,159,0.0,0.0,91,0.00,CLR,OVC,0.00,WeatherDisplay:10.37,2013-07-31 07:16:00,
2013-07-31 03:21:00,74.5,71.7,30.09,SSE,159,0.0,0.0,91,0.00,CLR,OVC,0.00,WeatherDisplay:10.37,2013-07-31 07:21:00,
2013-07-31 03:26:00,74.4,71.6,30.09,SSE,159,0.0,0.0,91,0.00,CLR,OVC,0.00,WeatherDisplay:10.37,2013-07-31 07:26:00,
2013-07-31 03:31:00,74.5,71.7,30.09,SSE,159,0.0,0.0,91,0.00,CLR,OVC,0.00,WeatherDisplay:10.37,2013-07-31 07:31:00,
2013-07-31 03:36:00,74.4,71.6,30.09,SSE,159,0.0,0.0,91,0.00,CLR,OVC,0.00,WeatherDisplay:10.37,2013-07-31 07:36:00,
2013-07-31 03:41:00,74.3,71.5,30.09,SSE,159,0.0,0.0,91,0.00,CLR,OVC,0.00,WeatherDisplay:10.37,2013-07-31 07:41:00,
2013-07-31 03:46:00,74.2,71.4,30.09,SSE,159,0.0,0.0,91,0.00,CLR,OVC,0.00,WeatherDisplay:10.37,2013-07-31 07:46:00,
2013-07-31 03:51:00,74.2,71.4,30.09,SSE,159,0.0,0.0,91,0.00,CLR,OVC,0.00,WeatherDisplay:10.37,2013-07-31 07:51:00,
2013-07-31 03:56:00,74.2,71.4,30.09,SSE,159,0.0,0.0,91,0.00,CLR,OVC,0.00,WeatherDisplay:10.37,2013-07-31 07:56:00,
2013-07-31 04:01:00,74.2,71.4,30.09,SSE,159,0.0,0.0,91,0.00,FEW,OVC,0.00,WeatherDisplay:10.37,2013-07-31 08:01:00,
2013-07-31 04:06:00,74.1,71.3,30.09,SSE,159,0.0,0.0,91,0.00,FEW,OVC,0.00,WeatherDisplay:10.37,2013-07-31 08:06:00,
2013-07-31 04:11:00,74.1,71.3,30.09,SSE,159,0.0,0.0,91,0.00,FEW,OVC,0.00,WeatherDisplay:10.37,2013-07-31 08:11:00,
2013-07-31 04:16:00,73.9,71.1,30.08,SSE,159,0.0,0.0,91,0.00,FEW,OVC,0.00,WeatherDisplay:10.37,2013-07-31 08:16:00,
2013-07-31 04:21:00,73.9,71.1,30.09,SSE,159,0.0,0.0,91,0.00,FEW,OVC,0.00,WeatherDisplay:10.37,2013-07-31 08:21:00,
2013-07-31 04:26:00,73.9,71.1,30.08,SSE,159,0.0,0.0,91,0.00,FEW,OVC,0.00,WeatherDisplay:10.37,2013-07-31 08:26:00,
2013-07-31 04:31:00,73.7,70.9,30.08,SSE,159,0.0,0.0,91,0.00,FEW,OVC,0.00,WeatherDisplay:10.37,2013-07-31 08:31:00,
2013-07-31 04:36:00,73.9,71.1,30.09,SSE,159,0.0,0.0,91,0.00,FEW,OVC,0.00,WeatherDisplay:10.37,2013-07-31 08:36:00,
2013-07-31 04:41:00,73.9,71.1,30.08,SSE,159,0.0,0.0,91,0.00,FEW,OVC,0.00,WeatherDisplay:10.37,2013-07-31 08:41:00,
2013-07-31 04:46:00,73.9,71.1,30.08,SSE,159,0.0,0.0,91,0.00,FEW,OVC,0.00,WeatherDisplay:10.37,2013-07-31 08:46:00,
2013-07-31 04:51:00,73.8,71.0,30.09,SSE,159,0.0,0.0,91,0.00,FEW,OVC,0.00,WeatherDisplay:10.37,2013-07-31 08:51:00,
2013-07-31 04:54:00,73.8,71.3,30.09,SSE,159,0.0,0.0,92,0.00,FEW,OVC,0.00,WeatherDisplay:10.37,2013-07-31 08:54:00,
2013-07-31 04:56:00,73.8,71.3,30.09,SSE,159,0.0,0.0,92,0.00,FEW,OVC,0.00,WeatherDisplay:10.37,2013-07-31 08:56:00,
2013-07-31 05:01:00,73.8,71.3,30.09,SSE,159,0.0,0.0,92,0.00,FEW,OVC,0.00,WeatherDisplay:10.37,2013-07-31 09:01:00,
2013-07-31 05:06:00,73.6,71.1,30.09,SSE,159,0.0,0.0,92,0.00,CLR,OVC,0.00,WeatherDisplay:10.37,2013-07-31 09:06:00,
2013-07-31 05:11:00,73.5,71.0,30.09,SSE,159,0.0,0.0,92,0.00,FEW,OVC,0.00,WeatherDisplay:10.37,2013-07-31 09:11:00,
2013-07-31 05:16:00,73.5,71.0,30.09,SSE,159,0.0,0.0,92,0.00,FEW,OVC,0.00,WeatherDisplay:10.37,2013-07-31 09:16:00,
2013-07-31 05:21:00,73.5,71.0,30.10,SSE,159,0.0,0.0,92,0.00,FEW,OVC,0.00,WeatherDisplay:10.37,2013-07-31 09:21:00,
2013-07-31 05:26:00,73.4,70.9,30.10,SSE,159,0.0,0.0,92,0.00,FEW,OVC,0.00,WeatherDisplay:10.37,2013-07-31 09:26:00,
2013-07-31 05:31:00,73.4,70.9,30.10,SSE,159,0.0,0.0,92,0.00,FEW,OVC,0.00,WeatherDisplay:10.37,2013-07-31 09:31:00,
2013-07-31 05:36:00,73.5,71.0,30.10,SSE,159,0.0,0.0,92,0.00,FEW,OVC,0.00,WeatherDisplay:10.37,2013-07-31 09:36:00,
2013-07-31 05:41:00,73.5,71.0,30.10,SSE,159,0.0,0.0,92,0.00,FEW,OVC,0.00,WeatherDisplay:10.37,2013-07-31 09:41:00,
2013-07-31 05:46:00,73.5,71.0,30.10,SSE,159,0.0,0.0,92,0.00,FEW,OVC,0.00,WeatherDisplay:10.37,2013-07-31 09:46:00,
2013-07-31 05:51:00,73.4,70.9,30.10,SSE,159,0.0,0.0,92,0.00,FEW,OVC,0.00,WeatherDisplay:10.37,2013-07-31 09:51:00,
2013-07-31 05:56:00,73.3,70.8,30.10,SSE,159,0.0,0.0,92,0.00,FEW,OVC,0.00,WeatherDisplay:10.37,2013-07-31 09:56:00,
2013-07-31 06:01:00,73.3,70.8,30.10,SSE,159,0.0,0.0,92,0.00,FEW,OVC,0.00,WeatherDisplay:10.37,2013-07-31 10:01:00,
2013-07-31 06:06:00,73.2,70.7,30.10,SSE,159,0.0,0.0,92,0.00,FEW,OVC,0.00,WeatherDisplay:10.37,2013-07-31 10:06:00,
2013-07-31 06:11:00,73.1,70.6,30.10,SSE,159,0.0,0.0,92,0.00,FEW,OVC,0.00,WeatherDisplay:10.37,2013-07-31 10:11:00,
2013-07-31 06:16:00,73.2,70.7,30.10,SSE,159,0.0,0.0,92,0.00,FEW,OVC,0.00,WeatherDisplay:10.37,2013-07-31 10:16:00,
2013-07-31 06:21:00,73.2,70.7,30.10,SSE,159,0.0,0.0,92,0.00,FEW,OVC,0.00,WeatherDisplay:10.37,2013-07-31 10:21:00,
2013-07-31 06:26:00,73.1,70.6,30.10,SSE,159,0.0,0.0,92,0.00,FEW,OVC,0.00,WeatherDisplay:10.37,2013-07-31 10:26:00,
2013-07-31 06:31:00,73.1,70.6,30.11,SSE,159,0.0,0.0,92,0.00,CLR,OVC,0.00,WeatherDisplay:10.37,2013-07-31 10:31:00,
2013-07-31 06:36:00,73.1,70.6,30.11,SSE,159,0.0,0.0,92,0.00,CLR,OVC,0.00,WeatherDisplay:10.37,2013-07-31 10:36:00,
2013-07-31 06:41:00,73.2,70.7,30.11,SSE,159,0.0,0.0,92,0.00,CLR,OVC,0.00,WeatherDisplay:10.37,2013-07-31 10:41:00,
2013-07-31 06:46:00,73.2,70.7,30.11,SSE,159,0.0,0.0,92,0.00,BKN,OVC,0.00,WeatherDisplay:10.37,2013-07-31 10:46:00,
2013-07-31 06:51:00,73.2,70.7,30.11,SSE,159,0.0,0.0,92,0.00,BKN,OVC,0.00,WeatherDisplay:10.37,2013-07-31 10:51:00,
2013-07-31 06:56:00,73.1,70.6,30.11,SSE,159,0.0,0.0,92,0.00,BKN,OVC,0.00,WeatherDisplay:10.37,2013-07-31 10:56:00,
2013-07-31 07:01:00,73.1,70.6,30.12,SSE,159,0.0,0.0,92,0.00,OVC,OVC,0.00,WeatherDisplay:10.37,2013-07-31 11:01:00,
2013-07-31 07:06:00,73.1,70.6,30.12,SSE,159,0.0,0.0,92,0.00,OVC,OVC,0.00,WeatherDisplay:10.37,2013-07-31 11:06:00,
2013-07-31 07:11:00,73.3,70.8,30.12,South,176,1.0,1.0,92,0.00,OVC,OVC,0.00,WeatherDisplay:10.37,2013-07-31 11:11:00,
2013-07-31 07:16:00,73.5,71.0,30.12,South,179,0.0,0.0,92,0.00,OVC,OVC,0.00,WeatherDisplay:10.37,2013-07-31 11:16:00,
2013-07-31 07:21:00,73.5,71.4,30.12,South,179,0.0,0.0,93,0.00,OVC,OVC,0.00,WeatherDisplay:10.37,2013-07-31 11:21:00,
2013-07-31 07:26:00,73.6,71.4,30.12,South,178,0.0,0.2,93,0.00,OVC,OVC,0.00,WeatherDisplay:10.37,2013-07-31 11:26:00,
2013-07-31 07:31:00,73.7,71.5,30.13,South,179,0.0,0.0,93,0.00,OVC,OVC,0.00,WeatherDisplay:10.37,2013-07-31 11:31:00,
2013-07-31 07:36:00,73.8,71.6,30.12,South,180,0.0,0.0,93,0.00,OVC,OVC,0.00,WeatherDisplay:10.37,2013-07-31 11:36:00,
2013-07-31 07:41:00,74.0,71.8,30.13,South,181,0.0,0.0,93,0.00,OVC,OVC,0.00,WeatherDisplay:10.37,2013-07-31 11:41:00,
2013-07-31 07:47:00,74.2,72.0,30.13,South,181,0.0,0.0,93,0.00,OVC,OVC,0.00,WeatherDisplay:10.37,2013-07-31 11:47:00,
2013-07-31 07:52:00,74.4,72.2,30.13,South,191,0.0,0.0,93,0.00,OVC,OVC,0.00,WeatherDisplay:10.37,2013-07-31 11:52:00,
2013-07-31 07:57:00,74.6,72.4,30.13,SSW,194,0.0,0.0,93,0.00,OVC,OVC,0.00,WeatherDisplay:10.37,2013-07-31 11:57:00,
2013-07-31 08:02:00,75.0,72.8,30.13,SSW,201,0.0,0.0,93,0.00,SCT,OVC,0.00,WeatherDisplay:10.37,2013-07-31 12:02:00,
2013-07-31 08:07:00,75.3,73.1,30.13,SSW,204,0.0,0.0,93,0.00,SCT,OVC,0.00,WeatherDisplay:10.37,2013-07-31 12:07:00,
2013-07-31 08:12:00,75.6,73.4,30.13,SSW,204,0.0,0.0,93,0.00,SCT,OVC,0.00,WeatherDisplay:10.37,2013-07-31 12:12:00,
2013-07-31 08:17:00,76.2,73.7,30.13,SSW,204,0.0,0.0,92,0.00,SCT,OVC,0.00,WeatherDisplay:10.37,2013-07-31 12:17:00,
2013-07-31 08:22:00,76.6,74.1,30.13,SSW,204,0.0,0.0,92,0.00,SCT,OVC,0.00,WeatherDisplay:10.37,2013-07-31 12:22:00,
2013-07-31 08:27:00,76.9,74.4,30.13,SSW,194,0.0,0.0,92,0.00,SCT,OVC,0.00,WeatherDisplay:10.37,2013-07-31 12:27:00,
2013-07-31 08:32:00,77.3,74.8,30.13,SSW,201,0.0,0.1,92,0.00,SCT,OVC,0.00,WeatherDisplay:10.37,2013-07-31 12:32:00,
2013-07-31 08:37:00,77.7,75.2,30.14,SSW,204,0.0,0.0,92,0.00,SCT,OVC,0.00,WeatherDisplay:10.37,2013-07-31 12:37:00,
2013-07-31 08:42:00,78.3,75.5,30.14,SSW,202,0.0,0.0,91,0.00,SCT,OVC,0.00,WeatherDisplay:10.37,2013-07-31 12:42:00,
2013-07-31 08:47:00,78.9,76.0,30.14,SSW,199,0.0,0.0,91,0.00,SCT,OVC,0.00,WeatherDisplay:10.37,2013-07-31 12:47:00,
2013-07-31 08:52:00,79.5,76.3,30.14,SSW,198,0.0,0.0,90,0.00,SCT,OVC,0.00,WeatherDisplay:10.37,2013-07-31 12:52:00,
2013-07-31 08:57:00,79.9,76.7,30.14,SSW,196,1.1,1.1,90,0.00,SCT,OVC,0.00,WeatherDisplay:10.37,2013-07-31 12:57:00,
2013-07-31 09:02:00,80.3,76.8,30.14,SSE,159,2.3,2.3,89,0.00,SCT,OVC,0.00,WeatherDisplay:10.37,2013-07-31 13:02:00,
2013-07-31 09:07:00,80.7,77.2,30.14,SSE,152,2.3,2.3,89,0.00,SCT,OVC,0.00,WeatherDisplay:10.37,2013-07-31 13:07:00,
2013-07-31 09:12:00,80.9,77.0,30.14,SSW,196,2.3,2.3,88,0.00,SCT,OVC,0.00,WeatherDisplay:10.37,2013-07-31 13:12:00,
2013-07-31 09:17:00,81.3,77.4,30.14,South,185,3.4,3.4,88,0.00,FEW,OVC,0.00,WeatherDisplay:10.37,2013-07-31 13:17:00,
2013-07-31 09:22:00,81.7,77.5,30.14,SE,137,2.0,2.0,87,0.00,FEW,OVC,0.00,WeatherDisplay:10.37,2013-07-31 13:22:00,
2013-07-31 09:27:00,81.9,77.3,30.14,South,189,2.3,2.3,86,0.00,FEW,OVC,0.00,WeatherDisplay:10.37,2013-07-31 13:27:00,
2013-07-31 09:32:00,82.6,78.0,30.14,South,177,2.3,2.3,86,0.00,FEW,OVC,0.00,WeatherDisplay:10.37,2013-07-31 13:32:00,
2013-07-31 09:37:00,83.3,78.0,30.14,WSW,250,2.3,2.3,84,0.00,FEW,OVC,0.00,WeatherDisplay:10.37,2013-07-31 13:37:00,
2013-07-31 09:42:00,84.0,78.6,30.14,SE,137,3.0,3.0,84,0.00,FEW,OVC,0.00,WeatherDisplay:10.37,2013-07-31 13:42:00,
2013-07-31 09:47:00,84.6,78.5,30.14,SW,218,1.1,1.1,82,0.00,FEW,OVC,0.00,WeatherDisplay:10.37,2013-07-31 13:47:00,
2013-07-31 09:52:00,85.3,78.4,30.14,SSW,201,3.4,3.4,80,0.00,FEW,OVC,0.00,WeatherDisplay:10.37,2013-07-31 13:52:00,
2013-07-31 09:57:00,85.7,78.4,30.14,South,188,1.1,0.0,79,0.00,FEW,OVC,0.00,WeatherDisplay:10.37,2013-07-31 13:57:00,
2013-07-31 10:02:00,86.0,78.3,30.15,SSE,156,2.3,2.3,78,0.00,FEW,OVC,0.00,WeatherDisplay:10.37,2013-07-31 14:02:00,
2013-07-31 10:07:00,85.7,78.0,30.15,SE,127,0.0,0.0,78,0.00,FEW,OVC,0.00,WeatherDisplay:10.37,2013-07-31 14:07:00,
2013-07-31 10:09:00,86.1,78.0,30.14,SSE,151,4.0,4.0,77,0.00,FEW,OVC,0.00,WeatherDisplay:10.37,2013-07-31 14:09:00,
2013-07-31 10:12:00,86.1,78.0,30.14,SSE,151,4.0,4.0,77,0.00,FEW,OVC,0.00,WeatherDisplay:10.37,2013-07-31 14:12:00,
2013-07-31 10:17:00,86.1,78.0,30.14,SSE,151,4.0,4.0,77,0.00,FEW,OVC,0.00,WeatherDisplay:10.37,2013-07-31 14:17:00,
2013-07-31 10:22:00,86.5,77.6,30.14,SSW,204,2.3,2.3,75,0.00,FEW,OVC,0.00,WeatherDisplay:10.37,2013-07-31 14:22:00,
2013-07-31 10:27:00,86.6,77.3,30.15,SSW,211,2.3,2.3,74,0.00,FEW,OVC,0.00,WeatherDisplay:10.37,2013-07-31 14:27:00,
2013-07-31 10:32:00,87.1,77.4,30.14,ESE,102,1.1,1.1,73,0.00,FEW,OVC,0.00,WeatherDisplay:10.37,2013-07-31 14:32:00,
2013-07-31 10:37:00,87.6,77.5,30.14,South,187,3.4,3.4,72,0.00,FEW,OVC,0.00,WeatherDisplay:10.37,2013-07-31 14:37:00,
2013-07-31 10:42:00,87.4,77.3,30.14,North,8,2.3,2.3,72,0.00,FEW,OVC,0.00,WeatherDisplay:10.37,2013-07-31 14:42:00,
2013-07-31 10:47:00,88.3,77.3,30.14,ESE,120,3.4,3.4,70,0.00,FEW,OVC,0.00,WeatherDisplay:10.37,2013-07-31 14:47:00,
2013-07-31 10:52:00,88.0,76.5,30.14,SSE,162,4.6,4.6,69,0.00,FEW,OVC,0.00,WeatherDisplay:10.37,2013-07-31 14:52:00,
2013-07-31 10:57:00,88.2,78.0,30.15,SE,135,3.4,3.4,72,0.00,FEW,OVC,0.00,WeatherDisplay:10.37,2013-07-31 14:57:00,
2013-07-31 11:02:00,88.6,75.8,30.14,East,99,3.4,3.4,66,0.00,CLR,OVC,0.00,WeatherDisplay:10.37,2013-07-31 15:02:00,
2013-07-31 11:07:00,89.5,77.5,30.14,SE,127,2.3,2.3,68,0.00,CLR,OVC,0.00,WeatherDisplay:10.37,2013-07-31 15:07:00,
2013-07-31 11:12:00,89.7,76.4,30.14,ENE,61,2.3,2.3,65,0.00,CLR,OVC,0.00,WeatherDisplay:10.37,2013-07-31 15:12:00,
2013-07-31 11:17:00,89.5,76.6,30.14,SSE,151,4.0,4.0,66,0.00,CLR,OVC,0.00,WeatherDisplay:10.37,2013-07-31 15:17:00,
2013-07-31 11:22:00,89.5,76.6,30.14,SE,127,4.0,4.0,66,0.00,CLR,OVC,0.00,WeatherDisplay:10.37,2013-07-31 15:22:00,
2013-07-31 11:27:00,89.4,77.0,30.14,SSW,202,1.1,1.1,67,0.00,CLR,OVC,0.00,WeatherDisplay:10.37,2013-07-31 15:27:00,
2013-07-31 11:32:00,90.1,76.3,30.14,SE,144,2.3,2.3,64,0.00,CLR,OVC,0.00,WeatherDisplay:10.37,2013-07-31 15:32:00,
2013-07-31 11:37:00,90.2,75.9,30.14,SE,133,3.4,3.4,63,0.00,CLR,OVC,0.00,WeatherDisplay:10.37,2013-07-31 15:37:00,
2013-07-31 11:42:00,90.5,76.7,30.13,ESE,106,3.4,3.4,64,0.00,CLR,OVC,0.00,WeatherDisplay:10.37,2013-07-31 15:42:00,
2013-07-31 11:47:00,90.4,77.9,30.13,South,185,2.3,2.3,67,0.00,CLR,OVC,0.00,WeatherDisplay:10.37,2013-07-31 15:47:00,
2013-07-31 11:52:00,90.1,76.3,30.13,SSE,153,2.3,2.3,64,0.00,CLR,OVC,0.00,WeatherDisplay:10.37,2013-07-31 15:52:00,
2013-07-31 11:57:00,90.2,76.8,30.13,SW,230,2.3,2.3,65,0.00,CLR,OVC,0.00,WeatherDisplay:10.37,2013-07-31 15:57:00,
2013-07-31 12:02:00,90.3,76.5,30.13,SSW,212,3.4,3.4,64,0.00,CLR,OVC,0.00,WeatherDisplay:10.37,2013-07-31 16:02:00,
2013-07-31 12:07:00,90.6,76.7,30.13,SSW,204,3.4,3.4,64,0.00,CLR,OVC,0.00,WeatherDisplay:10.37,2013-07-31 16:07:00,
2013-07-31 12:12:00,91.0,76.7,30.13,ESE,110,3.4,3.4,63,0.00,CLR,OVC,0.00,WeatherDisplay:10.37,2013-07-31 16:12:00,
2013-07-31 12:17:00,91.1,77.7,30.13,South,169,3.4,3.4,65,0.00,CLR,OVC,0.00,WeatherDisplay:10.37,2013-07-31 16:17:00,
2013-07-31 12:22:00,91.8,76.9,30.13,South,169,4.0,4.0,62,0.00,CLR,OVC,0.00,WeatherDisplay:10.37,2013-07-31 16:22:00,
2013-07-31 12:27:00,91.3,76.5,30.13,SSE,157,2.3,2.3,62,0.00,CLR,OVC,0.00,WeatherDisplay:10.37,2013-07-31 16:27:00,
2013-07-31 12:32:00,91.5,77.6,30.12,SW,234,2.3,2.3,64,0.00,CLR,OVC,0.00,WeatherDisplay:10.37,2013-07-31 16:32:00,
2013-07-31 12:37:00,91.3,76.0,30.12,SSE,147,5.8,5.8,61,0.00,CLR,OVC,0.00,WeatherDisplay:10.37,2013-07-31 16:37:00,
2013-07-31 12:42:00,91.0,75.7,30.12,NNW,339,3.4,3.4,61,0.00,CLR,OVC,0.00,WeatherDisplay:10.37,2013-07-31 16:42:00,
2013-07-31 12:47:00,91.5,75.1,30.12,SE,142,3.4,3.4,59,0.00,CLR,OVC,0.00,WeatherDisplay:10.37,2013-07-31 16:47:00,
2013-07-31 12:52:00,91.4,76.1,30.12,East,97,2.3,2.3,61,0.00,CLR,OVC,0.00,WeatherDisplay:10.37,2013-07-31 16:52:00,
2013-07-31 12:57:00,91.7,75.8,30.11,South,179,2.3,2.3,60,0.00,CLR,OVC,0.00,WeatherDisplay:10.37,2013-07-31 16:57:00,
2013-07-31 13:02:00,91.7,76.8,30.11,SE,140,2.0,2.0,62,0.00,CLR,OVC,0.00,WeatherDisplay:10.37,2013-07-31 17:02:00,
2013-07-31 13:07:00,92.0,77.1,30.11,SSE,154,1.1,1.1,62,0.00,CLR,OVC,0.00,WeatherDisplay:10.37,2013-07-31 17:07:00,
2013-07-31 13:12:00,92.2,76.3,30.11,NE,45,1.1,1.1,60,0.00,CLR,OVC,0.00,WeatherDisplay:10.37,2013-07-31 17:12:00,
2013-07-31 13:17:00,92.2,76.3,30.10,SE,143,2.3,2.3,60,0.00,CLR,OVC,0.00,WeatherDisplay:10.37,2013-07-31 17:17:00,
2013-07-31 13:22:00,92.5,75.6,30.10,South,190,3.4,3.4,58,0.00,CLR,OVC,0.00,WeatherDisplay:10.37,2013-07-31 17:22:00,
2013-07-31 13:27:00,93.1,75.6,30.09,SW,222,1.1,1.3,57,0.00,CLR,OVC,0.00,WeatherDisplay:10.37,2013-07-31 17:27:00,
2013-07-31 13:32:00,92.8,75.3,30.09,SE,135,3.4,4.2,57,0.00,CLR,OVC,0.00,WeatherDisplay:10.37,2013-07-31 17:32:00,
2013-07-31 13:37:00,92.5,75.0,30.09,SSW,192,3.4,3.4,57,0.00,CLR,OVC,0.00,WeatherDisplay:10.37,2013-07-31 17:37:00,
2013-07-31 13:42:00,92.5,75.6,30.09,SSW,213,3.4,3.4,58,0.00,CLR,OVC,0.00,WeatherDisplay:10.37,2013-07-31 17:42:00,
2013-07-31 13:47:00,92.3,75.9,30.08,South,185,2.3,2.3,59,0.00,CLR,OVC,0.00,WeatherDisplay:10.37,2013-07-31 17:47:00,
2013-07-31 13:52:00,92.4,76.5,30.08,WSW,240,4.0,4.0,60,0.00,CLR,OVC,0.00,WeatherDisplay:10.37,2013-07-31 17:52:00,
2013-07-31 13:57:00,91.6,76.2,30.08,WNW,290,2.3,2.3,61,0.00,CLR,OVC,0.00,WeatherDisplay:10.37,2013-07-31 17:57:00,
2013-07-31 14:02:00,91.6,75.2,30.08,NNE,21,2.3,2.3,59,0.00,CLR,OVC,0.00,WeatherDisplay:10.37,2013-07-31 18:02:00,
2013-07-31 14:07:00,92.0,75.6,30.07,ENE,63,5.8,5.8,59,0.00,CLR,OVC,0.00,WeatherDisplay:10.37,2013-07-31 18:07:00,
2013-07-31 14:12:00,92.7,75.2,30.07,South,183,5.8,5.8,57,0.00,CLR,OVC,0.00,WeatherDisplay:10.37,2013-07-31 18:12:00,
2013-07-31 14:17:00,92.4,75.5,30.07,SE,132,2.3,2.3,58,0.00,CLR,OVC,0.00,WeatherDisplay:10.37,2013-07-31 18:17:00,
2013-07-31 14:22:00,92.4,77.0,30.07,SE,138,3.4,3.4,61,0.00,CLR,OVC,0.00,WeatherDisplay:10.37,2013-07-31 18:22:00,
2013-07-31 14:27:00,93.0,76.6,30.06,SE,136,3.4,3.4,59,0.00,CLR,OVC,0.00,WeatherDisplay:10.37,2013-07-31 18:27:00,
2013-07-31 14:32:00,93.2,76.2,30.06,WNW,296,3.4,3.4,58,0.00,CLR,OVC,0.00,WeatherDisplay:10.37,2013-07-31 18:32:00,
2013-07-31 14:37:00,93.4,75.9,30.06,South,175,3.4,3.4,57,0.00,CLR,OVC,0.00,WeatherDisplay:10.37,2013-07-31 18:37:00,
2013-07-31 14:42:00,93.1,76.1,30.06,SSW,204,2.3,2.3,58,0.00,CLR,OVC,0.00,WeatherDisplay:10.37,2013-07-31 18:42:00,
2013-07-31 14:47:00,93.4,75.4,30.05,West,271,4.6,4.6,56,0.00,CLR,OVC,0.00,WeatherDisplay:10.37,2013-07-31 18:47:00,
2013-07-31 14:52:00,93.6,75.5,30.05,West,278,3.4,3.4,56,0.00,CLR,OVC,0.00,WeatherDisplay:10.37,2013-07-31 18:52:00,
2013-07-31 14:57:00,93.9,76.4,30.05,SSW,201,5.8,5.8,57,0.00,CLR,OVC,0.00,WeatherDisplay:10.37,2013-07-31 18:57:00,
2013-07-31 15:02:00,94.0,75.9,30.05,SE,145,5.8,5.8,56,0.00,CLR,OVC,0.00,WeatherDisplay:10.37,2013-07-31 19:02:00,
2013-07-31 15:07:00,94.2,75.6,30.05,WNW,296,2.3,2.3,55,0.00,CLR,OVC,0.00,WeatherDisplay:10.37,2013-07-31 19:07:00,
2013-07-31 15:12:00,94.5,75.8,30.05,SW,220,3.4,3.4,55,0.00,CLR,OVC,0.00,WeatherDisplay:10.37,2013-07-31 19:12:00,
2013-07-31 15:17:00,93.6,76.1,30.04,South,181,3.4,3.4,57,0.00,CLR,OVC,0.00,WeatherDisplay:10.37,2013-07-31 19:17:00,
2013-07-31 15:22:00,92.5,74.5,30.04,NNE,30,3.4,3.4,56,0.00,CLR,OVC,0.00,WeatherDisplay:10.37,2013-07-31 19:22:00,
2013-07-31 15:24:00,92.4,75.0,30.04,SE,130,2.3,2.3,57,0.00,CLR,OVC,0.00,WeatherDisplay:10.37,2013-07-31 19:24:00,
2013-07-31 15:27:00,92.4,75.0,30.04,SE,130,2.3,2.3,57,0.00,CLR,OVC,0.00,WeatherDisplay:10.37,2013-07-31 19:27:00,
2013-07-31 15:32:00,92.4,75.0,30.04,SE,130,2.3,2.3,57,0.00,CLR,OVC,0.00,WeatherDisplay:10.37,2013-07-31 19:32:00,
2013-07-31 15:37:00,92.5,75.6,30.03,SSW,197,5.0,5.0,58,0.00,CLR,OVC,0.00,WeatherDisplay:10.37,2013-07-31 19:37:00,
2013-07-31 15:42:00,92.8,75.3,30.03,SE,128,4.6,4.6,57,0.00,CLR,OVC,0.00,WeatherDisplay:10.37,2013-07-31 19:42:00,
2013-07-31 15:47:00,92.9,76.5,30.03,SSE,165,4.0,4.0,59,0.00,CLR,OVC,0.00,WeatherDisplay:10.37,2013-07-31 19:47:00,
2013-07-31 15:52:00,91.9,76.5,30.03,SSE,165,11.5,11.5,61,0.00,CLR,OVC,0.00,WeatherDisplay:10.37,2013-07-31 19:52:00,
2013-07-31 15:57:00,89.5,76.2,30.03,SE,138,12.6,12.6,65,0.00,CLR,OVC,0.00,WeatherDisplay:10.37,2013-07-31 19:57:00,
2013-07-31 16:02:00,86.2,74.4,30.04,South,179,6.9,6.9,68,0.00,CLR,OVC,0.00,WeatherDisplay:10.37,2013-07-31 20:02:00,
2013-07-31 16:07:00,83.3,74.9,30.05,SE,137,4.6,4.6,76,0.01,RA,OVC,0.04,WeatherDisplay:10.37,2013-07-31 20:07:00,
2013-07-31 16:12:00,79.6,74.0,30.06,SW,236,10.3,10.3,83,0.21,RA,OVC,0.23,WeatherDisplay:10.37,2013-07-31 20:12:00,
2013-07-31 16:17:00,77.3,72.4,30.07,SW,236,3.4,3.4,85,0.44,RA,OVC,0.49,WeatherDisplay:10.37,2013-07-31 20:17:00,
2013-07-31 16:22:00,76.0,71.2,30.05,SSE,156,3.4,3.4,85,0.68,RA,OVC,0.68,WeatherDisplay:10.37,2013-07-31 20:22:00,
2013-07-31 16:27:00,75.5,71.4,30.05,East,80,2.3,2.3,87,0.75,RA,OVC,0.75,WeatherDisplay:10.37,2013-07-31 20:27:00,
2013-07-31 16:32:00,75.4,71.6,30.05,SE,124,2.3,2.3,88,0.79,RA,OVC,0.79,WeatherDisplay:10.37,2013-07-31 20:32:00,
2013-07-31 16:37:00,75.9,72.4,30.05,NNE,14,1.1,1.1,89,0.80,RA,OVC,0.80,WeatherDisplay:10.37,2013-07-31 20:37:00,
2013-07-31 16:42:00,76.8,73.3,30.04,North,2,1.1,1.1,89,0.81,RA,OVC,0.81,WeatherDisplay:10.37,2013-07-31 20:42:00,
2013-07-31 16:47:00,77.4,73.9,30.04,ESE,107,1.1,1.1,89,0.82,RA,OVC,0.82,WeatherDisplay:10.37,2013-07-31 20:47:00,
2013-07-31 16:52:00,77.9,74.4,30.04,ESE,108,1.1,1.1,89,0.82,RA,OVC,0.82,WeatherDisplay:10.37,2013-07-31 20:52:00,
2013-07-31 16:57:00,78.5,75.0,30.04,SE,135,1.1,1.1,89,0.82,CLR,OVC,0.82,WeatherDisplay:10.37,2013-07-31 20:57:00,
2013-07-31 17:02:00,79.0,75.5,30.04,SE,138,2.3,2.3,89,0.82,FEW,OVC,0.82,WeatherDisplay:10.37,2013-07-31 21:02:00,
2013-07-31 17:07:00,79.5,76.0,30.04,SSE,158,1.0,1.0,89,0.81,FEW,OVC,0.82,WeatherDisplay:10.37,2013-07-31 21:07:00,
2013-07-31 17:12:00,80.1,76.2,30.05,SE,131,3.4,3.4,88,0.61,FEW,OVC,0.82,WeatherDisplay:10.37,2013-07-31 21:12:00,
2013-07-31 17:17:00,80.6,76.7,30.05,NE,54,1.1,1.1,88,0.47,FEW,OVC,0.82,WeatherDisplay:10.37,2013-07-31 21:17:00,
2013-07-31 17:22:00,81.3,77.4,30.05,SE,143,2.3,2.3,88,0.14,FEW,OVC,0.82,WeatherDisplay:10.37,2013-07-31 21:22:00,
2013-07-31 17:27:00,81.6,77.4,30.05,SE,130,2.3,2.3,87,0.07,FEW,OVC,0.82,WeatherDisplay:10.37,2013-07-31 21:27:00,
2013-07-31 17:32:00,81.8,77.2,30.04,SE,141,2.3,2.3,86,0.03,FEW,OVC,0.82,WeatherDisplay:10.37,2013-07-31 21:32:00,
2013-07-31 17:37:00,81.8,77.2,30.04,ESE,118,2.3,2.3,86,0.02,FEW,OVC,0.82,WeatherDisplay:10.37,2013-07-31 21:37:00,
2013-07-31 17:42:00,82.1,77.5,30.04,South,171,1.1,0.0,86,0.01,FEW,OVC,0.82,WeatherDisplay:10.37,2013-07-31 21:42:00,
2013-07-31 17:47:00,82.5,77.9,30.03,SE,144,2.0,2.0,86,0.00,FEW,OVC,0.82,WeatherDisplay:10.37,2013-07-31 21:47:00,
2013-07-31 17:52:00,82.5,77.5,30.03,East,95,1.1,1.1,85,0.00,FEW,OVC,0.82,WeatherDisplay:10.37,2013-07-31 21:52:00,
2013-07-31 17:57:00,82.7,77.7,30.02,SE,127,1.1,1.1,85,0.00,FEW,OVC,0.82,WeatherDisplay:10.37,2013-07-31 21:57:00,
2013-07-31 18:02:00,82.6,78.0,30.02,SE,134,2.3,2.3,86,0.00,CLR,OVC,0.82,WeatherDisplay:10.37,2013-07-31 22:02:00,
2013-07-31 18:07:00,82.6,78.0,30.02,SE,138,1.1,0.0,86,0.00,CLR,OVC,0.82,WeatherDisplay:10.37,2013-07-31 22:07:00,
2013-07-31 18:12:00,82.6,77.6,30.02,SSE,148,1.1,1.1,85,0.00,CLR,OVC,0.82,WeatherDisplay:10.37,2013-07-31 22:12:00,
2013-07-31 18:17:00,82.6,78.0,30.02,East,100,1.1,0.0,86,0.00,CLR,OVC,0.82,WeatherDisplay:10.37,2013-07-31 22:17:00,
2013-07-31 18:22:00,82.6,78.0,30.02,ESE,121,1.1,1.1,86,0.00,CLR,OVC,0.82,WeatherDisplay:10.37,2013-07-31 22:22:00,
2013-07-31 18:27:00,82.6,78.0,30.02,ESE,123,1.1,1.1,86,0.00,CLR,OVC,0.82,WeatherDisplay:10.37,2013-07-31 22:27:00,
2013-07-31 18:32:00,82.6,78.0,30.02,SE,127,1.1,1.1,86,0.00,CLR,OVC,0.82,WeatherDisplay:10.37,2013-07-31 22:32:00,
2013-07-31 18:37:00,82.6,78.0,30.02,SE,128,1.1,0.0,86,0.00,CLR,OVC,0.82,WeatherDisplay:10.37,2013-07-31 22:37:00,
2013-07-31 18:42:00,82.5,77.9,30.03,SE,145,1.1,1.1,86,0.00,CLR,OVC,0.82,WeatherDisplay:10.37,2013-07-31 22:42:00,
2013-07-31 18:47:00,82.5,78.2,30.02,SE,141,1.1,1.1,87,0.00,CLR,OVC,0.82,WeatherDisplay:10.37,2013-07-31 22:47:00,
2013-07-31 18:52:00,82.4,78.1,30.02,SSE,167,2.3,2.3,87,0.00,CLR,OVC,0.82,WeatherDisplay:10.37,2013-07-31 22:52:00,
2013-07-31 18:57:00,82.3,78.0,30.03,SSE,149,2.3,0.0,87,0.00,CLR,OVC,0.82,WeatherDisplay:10.37,2013-07-31 22:57:00,
2013-07-31 19:02:00,82.2,77.9,30.02,SE,141,1.1,1.1,87,0.00,CLR,OVC,0.82,WeatherDisplay:10.37,2013-07-31 23:02:00,
2013-07-31 19:07:00,82.2,78.3,30.03,SE,141,0.0,0.0,88,0.00,CLR,OVC,0.82,WeatherDisplay:10.37,2013-07-31 23:07:00,
2013-07-31 19:12:00,82.1,78.2,30.03,SE,145,0.0,0.0,88,0.00,CLR,OVC,0.82,WeatherDisplay:10.37,2013-07-31 23:12:00,
2013-07-31 19:17:00,82.0,78.1,30.03,SSE,149,1.1,1.1,88,0.00,FEW,OVC,0.82,WeatherDisplay:10.37,2013-07-31 23:17:00,
2013-07-31 19:22:00,81.9,77.6,30.03,SSE,149,1.1,0.0,87,0.00,FEW,OVC,0.82,WeatherDisplay:10.37,2013-07-31 23:22:00,
2013-07-31 19:27:00,81.9,77.6,30.03,SSE,149,1.1,0.0,87,0.00,FEW,OVC,0.82,WeatherDisplay:10.37,2013-07-31 23:27:00,
2013-07-31 19:32:00,81.7,77.5,30.04,SE,141,1.1,1.1,87,0.00,FEW,OVC,0.82,WeatherDisplay:10.37,2013-07-31 23:32:00,
2013-07-31 19:37:00,81.7,77.5,30.03,SE,141,0.0,0.0,87,0.00,FEW,OVC,0.82,WeatherDisplay:10.37,2013-07-31 23:37:00,
2013-07-31 19:42:00,81.7,77.5,30.04,South,180,0.0,0.0,87,0.00,FEW,OVC,0.82,WeatherDisplay:10.37,2013-07-31 23:42:00,
2013-07-31 19:47:00,81.7,77.5,30.04,South,180,1.1,0.0,87,0.00,OVC,OVC,0.82,WeatherDisplay:10.37,2013-07-31 23:47:00,
2013-07-31 19:52:00,81.6,77.7,30.03,South,180,1.1,1.1,88,0.00,OVC,OVC,0.82,WeatherDisplay:10.37,2013-07-31 23:52:00,
2013-07-31 19:57:00,81.5,77.6,30.03,South,180,1.1,1.1,88,0.00,OVC,OVC,0.82,WeatherDisplay:10.37,2013-07-31 23:57:00,
2013-07-31 20:02:00,81.3,77.4,30.03,SE,135,1.1,0.0,88,0.00,OVC,OVC,0.82,WeatherDisplay:10.37,2013-08-01 00:02:00,
2013-07-31 20:07:00,81.2,77.3,30.03,East,79,1.1,1.1,88,0.00,OVC,OVC,0.82,WeatherDisplay:10.37,2013-08-01 00:07:00,
2013-07-31 20:12:00,81.2,77.0,30.03,ENE,67,0.0,0.4,87,0.00,OVC,OVC,0.82,WeatherDisplay:10.37,2013-08-01 00:12:00,
2013-07-31 20:17:00,81.4,77.2,30.04,NNW,348,1.1,1.1,87,0.00,OVC,OVC,0.82,WeatherDisplay:10.37,2013-08-01 00:17:00,
2013-07-31 20:22:00,81.3,77.1,30.04,NE,56,3.4,3.4,87,0.00,OVC,OVC,0.82,WeatherDisplay:10.37,2013-08-01 00:22:00,
2013-07-31 20:27:00,81.3,77.1,30.04,ESE,110,1.1,1.1,87,0.00,OVC,OVC,0.82,WeatherDisplay:10.37,2013-08-01 00:27:00,
2013-07-31 20:32:00,81.2,77.0,30.05,SSW,196,1.1,1.1,87,0.00,OVC,OVC,0.82,WeatherDisplay:10.37,2013-08-01 00:32:00,
2013-07-31 20:37:00,81.2,77.0,30.06,SSW,201,0.0,0.0,87,0.00,OVC,OVC,0.82,WeatherDisplay:10.37,2013-08-01 00:37:00,
2013-07-31 20:39:00,81.3,77.1,30.06,NW,315,2.3,2.3,87,0.00,OVC,OVC,0.82,WeatherDisplay:10.37,2013-08-01 00:39:00,
2013-07-31 20:42:00,81.3,77.1,30.06,NW,315,2.3,2.3,87,0.00,OVC,OVC,0.82,WeatherDisplay:10.37,2013-08-01 00:42:00,
2013-07-31 20:47:00,81.3,77.1,30.06,NW,315,2.3,2.3,87,0.00,OVC,OVC,0.82,WeatherDisplay:10.37,2013-08-01 00:47:00,
2013-07-31 20:52:00,78.6,73.4,30.08,WNW,303,19.0,19.0,84,0.01,RA,OVC,0.84,WeatherDisplay:10.37,2013-08-01 00:52:00,
2013-07-31 20:57:00,76.1,71.9,30.08,West,279,7.0,7.0,87,0.07,RA,OVC,0.89,WeatherDisplay:10.37,2013-08-01 00:57:00,
2013-07-31 21:02:00,74.5,70.4,30.06,WSW,249,14.9,14.9,87,0.10,RA,OVC,0.96,WeatherDisplay:10.37,2013-08-01 01:02:00,
2013-07-31 21:07:00,73.1,69.3,30.07,SW,224,11.5,11.5,88,0.20,RA,OVC,1.02,WeatherDisplay:10.37,2013-08-01 01:07:00,
2013-07-31 21:12:00,72.0,68.2,30.08,WSW,241,17.3,17.3,88,0.25,RA,OVC,1.10,WeatherDisplay:10.37,2013-08-01 01:12:00,
2013-07-31 21:17:00,71.4,68.0,30.11,WSW,254,16.1,16.1,89,0.48,RA,OVC,1.36,WeatherDisplay:10.37,2013-08-01 01:17:00,
2013-07-31 21:22:00,71.4,68.3,30.11,WNW,283,11.5,11.5,90,0.75,RA,OVC,1.60,WeatherDisplay:10.37,2013-08-01 01:22:00,
2013-07-31 21:27:00,71.6,68.5,30.12,WSW,243,10.3,10.3,90,0.95,RA,OVC,1.82,WeatherDisplay:10.37,2013-08-01 01:27:00,
2013-07-31 21:32:00,71.5,68.4,30.11,WSW,239,4.6,4.6,90,1.09,RA,OVC,1.93,WeatherDisplay:10.37,2013-08-01 01:32:00,
2013-07-31 21:37:00,71.6,68.5,30.10,West,265,11.5,11.5,90,1.14,RA,OVC,1.97,WeatherDisplay:10.37,2013-08-01 01:37:00,
2013-07-31 21:42:00,71.9,68.8,30.09,WNW,298,12.6,12.6,90,1.16,RA,OVC,1.98,WeatherDisplay:10.37,2013-08-01 01:42:00,
2013-07-31 21:47:00,72.2,69.1,30.08,NNW,331,9.2,9.2,90,1.17,RA,OVC,1.99,WeatherDisplay:10.37,2013-08-01 01:47:00,
2013-07-31 21:52:00,72.3,69.2,30.08,NNE,18,4.6,4.6,90,1.16,RA,OVC,1.99,WeatherDisplay:10.37,2013-08-01 01:52:00,
2013-07-31 21:57:00,72.5,69.1,30.08,North,7,4.0,4.0,89,1.10,OVC,OVC,1.99,WeatherDisplay:10.37,2013-08-01 01:57:00,
2013-07-31 22:02:00,72.5,69.1,30.08,NNE,32,0.0,0.3,89,1.07,BKN,OVC,1.99,WeatherDisplay:10.37,2013-08-01 02:02:00,
2013-07-31 22:07:00,72.4,69.0,30.08,North,359,1.1,1.1,89,0.97,BKN,OVC,1.99,WeatherDisplay:10.37,2013-08-01 02:07:00,
2013-07-31 22:12:00,72.4,69.0,30.08,North,360,0.0,0.0,89,0.92,BKN,OVC,1.99,WeatherDisplay:10.37,2013-08-01 02:12:00,
2013-07-31 22:17:00,72.1,68.7,30.08,NNW,343,1.1,1.1,89,0.69,BKN,OVC,1.99,WeatherDisplay:10.37,2013-08-01 02:17:00,
2013-07-31 22:22:00,72.2,68.4,30.08,ESE,111,1.1,1.1,88,0.42,BKN,OVC,1.99,WeatherDisplay:10.37,2013-08-01 02:22:00,
2013-07-31 22:27:00,72.4,69.0,30.08,SE,142,3.4,3.4,89,0.22,BKN,OVC,1.99,WeatherDisplay:10.37,2013-08-01 02:27:00,
2013-07-31 22:32:00,72.4,69.3,30.08,SE,137,3.4,3.4,90,0.08,-RA,OVC,1.99,WeatherDisplay:10.37,2013-08-01 02:32:00,
2013-07-31 22:37:00,72.4,69.3,30.08,SE,133,2.3,2.3,90,0.03,-RA,OVC,1.99,WeatherDisplay:10.37,2013-08-01 02:37:00,
2013-07-31 22:42:00,72.3,69.2,30.08,North,357,1.1,1.1,90,0.01,-RA,OVC,1.99,WeatherDisplay:10.37,2013-08-01 02:42:00,
2013-07-31 22:47:00,72.3,69.2,30.08,North,11,1.1,1.1,90,0.01,-RA,OVC,2.00,WeatherDisplay:10.37,2013-08-01 02:47:00,
2013-07-31 22:52:00,72.3,69.2,30.08,NNE,24,0.0,0.1,90,0.01,-RA,OVC,2.01,WeatherDisplay:10.37,2013-08-01 02:52:00,
2013-07-31 22:57:00,72.4,69.3,30.08,East,79,1.1,0.0,90,0.02,-RA,OVC,2.01,WeatherDisplay:10.37,2013-08-01 02:57:00,
2013-07-31 23:02:00,72.5,69.4,30.08,East,79,0.0,0.1,90,0.03,-RA,OVC,2.02,WeatherDisplay:10.37,2013-08-01 03:02:00,
2013-07-31 23:07:00,72.4,69.3,30.08,East,80,0.0,0.0,90,0.04,-RA,OVC,2.03,WeatherDisplay:10.37,2013-08-01 03:07:00,
2013-07-31 23:12:00,72.3,69.2,30.08,East,79,0.0,0.0,90,0.04,-RA,OVC,2.04,WeatherDisplay:10.37,2013-08-01 03:12:00,
2013-07-31 23:17:00,72.2,69.1,30.09,East,80,0.0,0.0,90,0.05,-RA,OVC,2.05,WeatherDisplay:10.37,2013-08-01 03:17:00,
2013-07-31 23:22:00,72.3,69.2,30.09,East,80,0.0,0.0,90,0.07,-RA,OVC,2.06,WeatherDisplay:10.37,2013-08-01 03:22:00,
2013-07-31 23:27:00,72.3,69.2,30.09,East,80,1.1,1.1,90,0.07,-RA,OVC,2.07,WeatherDisplay:10.37,2013-08-01 03:27:00,
2013-07-31 23:32:00,72.3,69.5,30.09,East,80,0.0,0.0,91,0.09,-RA,OVC,2.08,WeatherDisplay:10.37,2013-08-01 03:32:00,
2013-07-31 23:37:00,72.3,69.5,30.09,ENE,78,1.1,1.1,91,0.10,-RA,OVC,2.09,WeatherDisplay:10.37,2013-08-01 03:37:00,
2013-07-31 23:42:00,72.2,69.4,30.09,ENE,78,1.1,1.1,91,0.11,-RA,OVC,2.10,WeatherDisplay:10.37,2013-08-01 03:42:00,
2013-07-31 23:47:00,72.2,69.4,30.09,ENE,78,0.0,0.0,91,0.10,-RA,OVC,2.10,WeatherDisplay:10.37,2013-08-01 03:47:00,
2013-07-31 23:52:00,72.3,69.5,30.09,ENE,78,0.0,0.0,91,0.11,-RA,OVC,2.11,WeatherDisplay:10.37,2013-08-01 03:52:00,
2013-07-31 23:57:00,72.4,69.6,30.08,ENE,78,1.1,1.1,91,0.11,-RA,OVC,2.12,WeatherDisplay:10.37,2013-08-01 03:57:00,